Cherokee — 9HBC7 — position and weather

sailwx.info

Track history (hours):
 
Tides and Currents Weather Stations Pressure Air Temp Water Temp Dewpoint Dewpoint Depression Visibility Wind Speed Wind Dir Waves Ship Positions

Cherokee

Last reported at 2016-Jul-19 07:33 UTC. Time now 2016-Jul-25 11:57 UTC.
Position N 32°57' E 034°47'.

Length 140 m; draft 2.8 m.

Type: Cargo ship. MMSI: 215059000.

Date/timePositionNaut miles runAvg speedWind from/ knotsBaromVisibWave heightAir tempDewpointWater temp
2016-Jul-19 07:33N 32°57' E 034°47'13 4.2
2016-Jul-19 04:32N 32°51' E 035°00'0 0.0
2016-Jul-19 03:32N 32°51' E 035°00'0 0.0
2016-Jul-19 02:32N 32°51' E 035°00'0 0.0
2016-Jul-19 01:32N 32°51' E 035°00'0 0.0
2016-Jul-19 00:32N 32°51' E 035°00'0 0.0
2016-Jul-18 23:32N 32°51' E 035°00'0 0.0
2016-Jul-18 22:32N 32°51' E 035°00'0 0.0
2016-Jul-18 21:32N 32°51' E 035°00'0 0.0
2016-Jul-18 20:26N 32°51' E 035°00'0 0.0
2016-Jul-18 19:32N 32°51' E 035°00'0 0.0
2016-Jul-18 18:32N 32°51' E 035°00'0 0.0
2016-Jul-18 17:32N 32°51' E 035°00'0 0.0
2016-Jul-18 16:32N 32°51' E 035°00'0 0.0
2016-Jul-18 15:32N 32°51' E 035°00'0 0.0
2016-Jul-18 14:32N 32°51' E 035°00'0 0.0
2016-Jul-18 13:32N 32°51' E 035°00'0 0.0
2016-Jul-18 12:32N 32°51' E 035°00'0 0.0
2016-Jul-18 11:32N 32°51' E 035°00'0 0.0
2016-Jul-18 10:32N 32°51' E 035°00'0 0.0
2016-Jul-18 09:32N 32°51' E 035°00'0 0.0
2016-Jul-18 08:32N 32°51' E 035°00'0 0.0
2016-Jul-18 07:32N 32°51' E 035°00'0 0.0
2016-Jul-18 06:32N 32°51' E 035°00'1 1.2
2016-Jul-18 05:33N 32°49' E 034°60'0 0.1
2016-Jul-18 04:33N 32°49' E 034°60'0 0.0
2016-Jul-18 03:33N 32°49' E 034°60'0 0.0
2016-Jul-18 02:33N 32°49' E 034°60'0 0.0
2016-Jul-18 01:33N 32°49' E 034°60'0 0.0
2016-Jul-18 00:33N 32°49' E 034°60'0 0.0
2016-Jul-17 23:33N 32°49' E 034°60'0 0.0
2016-Jul-17 22:33N 32°49' E 034°60'0 0.0
2016-Jul-17 21:33N 32°49' E 034°60'0 0.0
2016-Jul-17 20:33N 32°49' E 034°60'0 0.0
2016-Jul-17 19:33N 32°49' E 034°60'0 0.0
2016-Jul-17 18:33N 32°49' E 034°60'0 0.0
2016-Jul-17 17:33N 32°49' E 034°60'0 0.0
2016-Jul-17 16:33N 32°49' E 034°60'0 0.0
2016-Jul-17 15:33N 32°49' E 034°60'0 0.0
2016-Jul-17 14:33N 32°49' E 034°60'0 0.5
2016-Jul-17 13:33N 32°49' E 035°00'2 2.5
2016-Jul-17 12:33N 32°52' E 034°59'0 0.5
2016-Jul-17 11:33N 32°52' E 034°59'36 8.2
2016-Jul-17 07:10N 32°58' E 034°16'5 7.9
2016-Jul-17 06:33N 32°59' E 034°11'14 7.2
2016-Jul-17 04:33N 33°05' E 033°55'7 7.1
2016-Jul-17 03:33N 33°09' E 033°48'7 7.1
2016-Jul-17 02:33N 33°14' E 033°42'7 7.2
2016-Jul-17 01:33N 33°19' E 033°35'7 7.2
2016-Jul-17 00:33N 33°24' E 033°29'7 7.3
2016-Jul-16 23:33N 33°28' E 033°22'8 7.4
2016-Jul-16 22:33N 33°33' E 033°15'7 7.5
2016-Jul-16 21:33N 33°38' E 033°08'8 7.6
2016-Jul-16 20:33N 33°42' E 033°01'8 7.9
2016-Jul-16 19:33N 33°48' E 032°54'8 8.3
2016-Jul-16 18:33N 33°53' E 032°46'8 8.4
2016-Jul-16 17:33N 33°59' E 032°39'8 8.5
2016-Jul-16 16:33N 34°04' E 032°31'8 8.3
2016-Jul-16 15:33N 34°09' E 032°23'8 8.4
2016-Jul-16 14:33N 34°15' E 032°15'8 8.4
2016-Jul-16 13:33N 34°20' E 032°08'8 8.3
2016-Jul-16 12:33N 34°26' E 032°00'84 7.7
2016-Jul-16 01:33N 35°20' E 030°42'55 7.5
2016-Jul-15 18:19N 35°55' E 029°50'5 6.8
2016-Jul-15 17:33N 35°59' E 029°45'  
2016-Jul-10 23:23N 44°18' E 034°13'7 8.1
2016-Jul-10 22:34N 44°19' E 034°22'8 8.0
2016-Jul-10 21:34N 44°21' E 034°32'8 8.0
2016-Jul-10 20:33N 44°24' E 034°43'9 8.3
2016-Jul-10 19:25N 44°27' E 034°56'75 7.3
2016-Jul-10 09:05N 45°02' E 036°29'5 7.6
2016-Jul-10 08:24N 45°07' E 036°29'6 7.4
2016-Jul-10 07:34N 45°13' E 036°28'7 6.5
2016-Jul-10 06:33N 45°19' E 036°32'7 7.2
2016-Jul-10 05:34N 45°23' E 036°40'5 5.5
2016-Jul-10 04:34N 45°29' E 036°38'0 0.1
2016-Jul-10 03:33N 45°28' E 036°39'3 2.8
2016-Jul-10 02:34N 45°30' E 036°42'5 4.9
2016-Jul-10 01:34N 45°34' E 036°45'  
Track history (hours):
 
Tides and Currents Weather Stations Pressure Air Temp Water Temp Dewpoint Dewpoint Depression Visibility Wind Speed Wind Dir Waves Ship Positions

Cherokee

Last reported at 2016-Jul-19 07:33 UTC. Time now 2016-Jul-25 11:57 UTC.
Position N 32°57' E 034°47'.

Length 140 m; draft 2.8 m.

Type: Cargo ship. MMSI: 215059000.

Date/timePositionNaut miles runAvg speedWind from/ knotsBaromVisibWave heightAir tempDewpointWater temp
2016-Jul-19 07:33N 32°57' E 034°47'13 4.2
2016-Jul-19 04:32N 32°51' E 035°00'0 0.0
2016-Jul-19 03:32N 32°51' E 035°00'0 0.0
2016-Jul-19 02:32N 32°51' E 035°00'0 0.0
2016-Jul-19 01:32N 32°51' E 035°00'0 0.0
2016-Jul-19 00:32N 32°51' E 035°00'0 0.0
2016-Jul-18 23:32N 32°51' E 035°00'0 0.0
2016-Jul-18 22:32N 32°51' E 035°00'0 0.0
2016-Jul-18 21:32N 32°51' E 035°00'0 0.0
2016-Jul-18 20:26N 32°51' E 035°00'0 0.0
2016-Jul-18 19:32N 32°51' E 035°00'0 0.0
2016-Jul-18 18:32N 32°51' E 035°00'0 0.0
2016-Jul-18 17:32N 32°51' E 035°00'0 0.0
2016-Jul-18 16:32N 32°51' E 035°00'0 0.0
2016-Jul-18 15:32N 32°51' E 035°00'0 0.0
2016-Jul-18 14:32N 32°51' E 035°00'0 0.0
2016-Jul-18 13:32N 32°51' E 035°00'0 0.0
2016-Jul-18 12:32N 32°51' E 035°00'0 0.0
2016-Jul-18 11:32N 32°51' E 035°00'0 0.0
2016-Jul-18 10:32N 32°51' E 035°00'0 0.0
2016-Jul-18 09:32N 32°51' E 035°00'0 0.0
2016-Jul-18 08:32N 32°51' E 035°00'0 0.0
2016-Jul-18 07:32N 32°51' E 035°00'0 0.0
2016-Jul-18 06:32N 32°51' E 035°00'1 1.2
2016-Jul-18 05:33N 32°49' E 034°60'0 0.1
2016-Jul-18 04:33N 32°49' E 034°60'0 0.0
2016-Jul-18 03:33N 32°49' E 034°60'0 0.0
2016-Jul-18 02:33N 32°49' E 034°60'0 0.0
2016-Jul-18 01:33N 32°49' E 034°60'0 0.0
2016-Jul-18 00:33N 32°49' E 034°60'0 0.0
2016-Jul-17 23:33N 32°49' E 034°60'0 0.0
2016-Jul-17 22:33N 32°49' E 034°60'0 0.0
2016-Jul-17 21:33N 32°49' E 034°60'0 0.0
2016-Jul-17 20:33N 32°49' E 034°60'0 0.0
2016-Jul-17 19:33N 32°49' E 034°60'0 0.0
2016-Jul-17 18:33N 32°49' E 034°60'0 0.0
2016-Jul-17 17:33N 32°49' E 034°60'0 0.0
2016-Jul-17 16:33N 32°49' E 034°60'0 0.0
2016-Jul-17 15:33N 32°49' E 034°60'0 0.0
2016-Jul-17 14:33N 32°49' E 034°60'0 0.5
2016-Jul-17 13:33N 32°49' E 035°00'2 2.5
2016-Jul-17 12:33N 32°52' E 034°59'0 0.5
2016-Jul-17 11:33N 32°52' E 034°59'36 8.2
2016-Jul-17 07:10N 32°58' E 034°16'5 7.9
2016-Jul-17 06:33N 32°59' E 034°11'14 7.2
2016-Jul-17 04:33N 33°05' E 033°55'7 7.1
2016-Jul-17 03:33N 33°09' E 033°48'7 7.1
2016-Jul-17 02:33N 33°14' E 033°42'7 7.2
2016-Jul-17 01:33N 33°19' E 033°35'7 7.2
2016-Jul-17 00:33N 33°24' E 033°29'7 7.3
2016-Jul-16 23:33N 33°28' E 033°22'8 7.4
2016-Jul-16 22:33N 33°33' E 033°15'7 7.5
2016-Jul-16 21:33N 33°38' E 033°08'8 7.6
2016-Jul-16 20:33N 33°42' E 033°01'8 7.9
2016-Jul-16 19:33N 33°48' E 032°54'8 8.3
2016-Jul-16 18:33N 33°53' E 032°46'8 8.4
2016-Jul-16 17:33N 33°59' E 032°39'8 8.5
2016-Jul-16 16:33N 34°04' E 032°31'8 8.3
2016-Jul-16 15:33N 34°09' E 032°23'8 8.4
2016-Jul-16 14:33N 34°15' E 032°15'8 8.4
2016-Jul-16 13:33N 34°20' E 032°08'8 8.3
2016-Jul-16 12:33N 34°26' E 032°00'84 7.7
2016-Jul-16 01:33N 35°20' E 030°42'55 7.5
2016-Jul-15 18:19N 35°55' E 029°50'5 6.8
2016-Jul-15 17:33N 35°59' E 029°45'  
2016-Jul-10 23:23N 44°18' E 034°13'7 8.1
2016-Jul-10 22:34N 44°19' E 034°22'8 8.0
2016-Jul-10 21:34N 44°21' E 034°32'8 8.0
2016-Jul-10 20:33N 44°24' E 034°43'9 8.3
2016-Jul-10 19:25N 44°27' E 034°56'75 7.3
2016-Jul-10 09:05N 45°02' E 036°29'5 7.6
2016-Jul-10 08:24N 45°07' E 036°29'6 7.4
2016-Jul-10 07:34N 45°13' E 036°28'7 6.5
2016-Jul-10 06:33N 45°19' E 036°32'7 7.2
2016-Jul-10 05:34N 45°23' E 036°40'5 5.5
2016-Jul-10 04:34N 45°29' E 036°38'0 0.1
2016-Jul-10 03:33N 45°28' E 036°39'3 2.8
2016-Jul-10 02:34N 45°30' E 036°42'5 4.9
2016-Jul-10 01:34N 45°34' E 036°45'  

Dump ship's entire track history